AAL171 KJFK-KLAX
Flight info
| Callsign | AAL171 |
|---|---|
| Flight time | N/A |
| Altitude | 34000 |
| Route | COATE Q436 RAAKK CRL J554 GIJ PIGGG CID SCB OBH BENNZ BICAR EKR SAKES BCE LAKRR Q88 HAKMN ANJLL4 |
| Aircraft | A321/M-SDE3FGHIRWY/LB1 |
Departure
| Time | 2026-05-04 10:22 |
|---|---|
| Airport | John F. Kennedy International Airport (KJFK) |
Arrival
| Time | N/A |
|---|---|
| Airport | Los Angeles International Airport (KLAX) |
| Time | Latitude | Longitude | Altitude | Speed | Heading |
|---|---|---|---|---|---|
| 2026-05-04 09:34 | 40.64909 | -73.79057 | 16 ft | 0 kts | 172° |
| 2026-05-04 10:08 | 40.64964 | -73.79105 | 18 ft | 4 kts | 60° |
| 2026-05-04 10:08 | 40.64959 | -73.79115 | 17 ft | 0 kts | 60° |
| 2026-05-04 10:10 | 40.64963 | -73.79107 | 19 ft | 2 kts | 61° |
| 2026-05-04 10:11 | 40.64972 | -73.79085 | 17 ft | 4 kts | 61° |
| 2026-05-04 10:11 | 40.64987 | -73.79051 | 16 ft | 5 kts | 61° |
| 2026-05-04 10:11 | 40.65006 | -73.79005 | 16 ft | 6 kts | 61° |
| 2026-05-04 10:11 | 40.65029 | -73.78949 | 16 ft | 7 kts | 61° |
| 2026-05-04 10:12 | 40.65067 | -73.78916 | 16 ft | 5 kts | 4° |
| 2026-05-04 10:12 | 40.65072 | -73.78916 | 16 ft | 0 kts | 2° |
| 2026-05-04 10:13 | 40.65080 | -73.78915 | 16 ft | 2 kts | 3° |
| 2026-05-04 10:13 | 40.65097 | -73.78914 | 16 ft | 3 kts | 4° |
| 2026-05-04 10:13 | 40.65123 | -73.78911 | 16 ft | 4 kts | 5° |
| 2026-05-04 10:13 | 40.65157 | -73.78906 | 16 ft | 5 kts | 6° |
| 2026-05-04 10:14 | 40.65197 | -73.78897 | 16 ft | 6 kts | 24° |
| 2026-05-04 10:14 | 40.65217 | -73.78846 | 16 ft | 7 kts | 77° |
| 2026-05-04 10:16 | 40.65412 | -73.78337 | 19 ft | 12 kts | 55° |
| 2026-05-04 10:16 | 40.65458 | -73.78237 | 19 ft | 14 kts | 60° |
| 2026-05-04 10:16 | 40.65494 | -73.78137 | 16 ft | 10 kts | 85° |
| 2026-05-04 10:16 | 40.65462 | -73.78048 | 16 ft | 11 kts | 119° |
| 2026-05-04 10:17 | 40.65420 | -73.77956 | 16 ft | 12 kts | 121° |
| 2026-05-04 10:17 | 40.65374 | -73.77856 | 16 ft | 13 kts | 121° |
| 2026-05-04 10:19 | 40.64970 | -73.76965 | 17 ft | 18 kts | 121° |
| 2026-05-04 10:19 | 40.64917 | -73.76847 | 16 ft | 13 kts | 120° |
| 2026-05-04 10:19 | 40.64874 | -73.76752 | 17 ft | 10 kts | 119° |
| 2026-05-04 10:19 | 40.64903 | -73.76680 | 16 ft | 11 kts | 32° |
| 2026-05-04 10:20 | 40.64971 | -73.76626 | 16 ft | 12 kts | 31° |
| 2026-05-04 10:20 | 40.65044 | -73.76568 | 16 ft | 13 kts | 31° |
| 2026-05-04 10:20 | 40.65102 | -73.76510 | 16 ft | 9 kts | 59° |
| 2026-05-04 10:20 | 40.65081 | -73.76433 | 17 ft | 10 kts | 122° |
| 2026-05-04 10:21 | 40.65044 | -73.76369 | 16 ft | 8 kts | 147° |
| 2026-05-04 10:21 | 40.64993 | -73.76383 | 16 ft | 9 kts | 211° |
| 2026-05-04 10:21 | 40.64831 | -73.76512 | 16 ft | 60 kts | 211° |
| 2026-05-04 10:21 | 40.64273 | -73.76946 | 18 ft | 124 kts | 211° |
| 2026-05-04 10:22 | 40.62399 | -73.78430 | 786 ft | 162 kts | 213° |
| 2026-05-04 10:22 | 40.61425 | -73.79203 | 1466 ft | 169 kts | 216° |
| 2026-05-04 10:22 | 40.60365 | -73.80067 | 1722 ft | 191 kts | 217° |
| 2026-05-04 10:23 | 40.59174 | -73.81041 | 1925 ft | 213 kts | 217° |
| 2026-05-04 10:23 | 40.57837 | -73.82133 | 2126 ft | 239 kts | 216° |
| 2026-05-04 10:25 | 40.50748 | -73.75308 | 7236 ft | 295 kts | 54° |
| 2026-05-04 10:25 | 40.52120 | -73.73324 | 7959 ft | 294 kts | 39° |
| 2026-05-04 10:25 | 40.53664 | -73.71535 | 8715 ft | 297 kts | 37° |
| 2026-05-04 10:25 | 40.55240 | -73.69759 | 9453 ft | 300 kts | 37° |
| 2026-05-04 10:26 | 40.56868 | -73.68016 | 10166 ft | 302 kts | 29° |
| 2026-05-04 10:26 | 40.58828 | -73.66899 | 10406 ft | 315 kts | 6° |
| 2026-05-04 10:26 | 40.61044 | -73.66926 | 10549 ft | 327 kts | 342° |
| 2026-05-04 10:26 | 40.63127 | -73.68208 | 10681 ft | 338 kts | 318° |
| 2026-05-04 10:27 | 40.64658 | -73.70562 | 11025 ft | 343 kts | 300° |
| 2026-05-04 10:27 | 40.65969 | -73.73215 | 11645 ft | 347 kts | 300° |
| 2026-05-04 10:27 | 40.67228 | -73.75730 | 12285 ft | 350 kts | 301° |
| 2026-05-04 10:27 | 40.68580 | -73.78413 | 12961 ft | 353 kts | 301° |
| 2026-05-04 10:28 | 40.69948 | -73.81122 | 13633 ft | 356 kts | 301° |
| 2026-05-04 10:28 | 40.71324 | -73.83853 | 14234 ft | 359 kts | 301° |
| 2026-05-04 10:28 | 40.72711 | -73.86610 | 14851 ft | 362 kts | 301° |
| 2026-05-04 10:28 | 40.74101 | -73.89385 | 15467 ft | 364 kts | 301° |
| 2026-05-04 10:29 | 40.75498 | -73.92183 | 16084 ft | 367 kts | 301° |
| 2026-05-04 10:29 | 40.76885 | -73.94969 | 16695 ft | 370 kts | 301° |
| 2026-05-04 10:29 | 40.78318 | -73.97854 | 17315 ft | 372 kts | 301° |
| 2026-05-04 10:29 | 40.79743 | -74.00722 | 17915 ft | 375 kts | 301° |
| 2026-05-04 10:30 | 40.81180 | -74.03611 | 18488 ft | 378 kts | 301° |
| 2026-05-04 10:30 | 40.82628 | -74.06522 | 19003 ft | 381 kts | 301° |
| 2026-05-04 10:30 | 40.84086 | -74.09453 | 19517 ft | 383 kts | 301° |
| 2026-05-04 10:30 | 40.85551 | -74.12404 | 20027 ft | 385 kts | 301° |
| 2026-05-04 10:31 | 40.87024 | -74.15377 | 20524 ft | 387 kts | 301° |
| 2026-05-04 10:31 | 40.88503 | -74.18363 | 21031 ft | 390 kts | 301° |
| 2026-05-04 10:32 | 40.97567 | -74.36710 | 23776 ft | 404 kts | 301° |
| 2026-05-04 10:33 | 40.99104 | -74.39840 | 24136 ft | 407 kts | 301° |
| 2026-05-04 10:33 | 41.00652 | -74.42993 | 24507 ft | 409 kts | 301° |
| 2026-05-04 10:33 | 41.02208 | -74.46162 | 24860 ft | 412 kts | 301° |
| 2026-05-04 10:33 | 41.03776 | -74.49354 | 25199 ft | 414 kts | 300° |
| 2026-05-04 10:34 | 41.05349 | -74.52562 | 25546 ft | 417 kts | 300° |
| 2026-05-04 10:34 | 41.06932 | -74.55793 | 25884 ft | 419 kts | 300° |
| 2026-05-04 10:34 | 41.08522 | -74.59048 | 26204 ft | 422 kts | 300° |
| 2026-05-04 10:34 | 41.10117 | -74.62321 | 26539 ft | 424 kts | 300° |
| 2026-05-04 10:35 | 41.11718 | -74.65614 | 26871 ft | 426 kts | 300° |
| 2026-05-04 10:35 | 41.13332 | -74.68931 | 27206 ft | 429 kts | 300° |
| 2026-05-04 10:35 | 41.14917 | -74.72290 | 27543 ft | 431 kts | 298° |
| 2026-05-04 10:35 | 41.16448 | -74.75717 | 27853 ft | 433 kts | 297° |
| 2026-05-04 10:36 | 41.17939 | -74.79185 | 28252 ft | 432 kts | 297° |
| 2026-05-04 10:36 | 41.19409 | -74.82662 | 28719 ft | 431 kts | 297° |
| 2026-05-04 10:36 | 41.20876 | -74.86125 | 29165 ft | 430 kts | 297° |
| 2026-05-04 10:36 | 41.22353 | -74.89582 | 29610 ft | 430 kts | 297° |
| 2026-05-04 10:37 | 41.23836 | -74.93028 | 30035 ft | 429 kts | 297° |
| 2026-05-04 10:37 | 41.25325 | -74.96463 | 30389 ft | 429 kts | 297° |
| 2026-05-04 10:37 | 41.26816 | -74.99891 | 30719 ft | 429 kts | 297° |
| 2026-05-04 10:37 | 41.28306 | -75.03325 | 31032 ft | 428 kts | 297° |
| 2026-05-04 10:39 | 41.36697 | -75.22788 | 32803 ft | 428 kts | 296° |
| 2026-05-04 10:39 | 41.38161 | -75.26207 | 33094 ft | 429 kts | 296° |
| 2026-05-04 10:39 | 41.39638 | -75.29659 | 33381 ft | 429 kts | 296° |
| 2026-05-04 10:40 | 41.41115 | -75.33110 | 33660 ft | 429 kts | 296° |
| 2026-05-04 10:40 | 41.42590 | -75.36563 | 33920 ft | 430 kts | 296° |
| 2026-05-04 10:40 | 41.44069 | -75.40027 | 33982 ft | 430 kts | 296° |
| 2026-05-04 10:41 | 41.47021 | -75.46959 | 33988 ft | 430 kts | 295° |
| 2026-05-04 10:41 | 41.49311 | -75.54269 | 33983 ft | 427 kts | 288° |
| 2026-05-04 10:42 | 41.51440 | -75.61674 | 33985 ft | 428 kts | 288° |
| 2026-05-04 10:42 | 41.53569 | -75.69093 | 33985 ft | 428 kts | 288° |
| 2026-05-04 10:43 | 41.55690 | -75.76517 | 33991 ft | 428 kts | 288° |
| 2026-05-04 10:45 | 41.64170 | -76.06391 | 33991 ft | 430 kts | 289° |
| 2026-05-04 10:45 | 41.66268 | -76.13836 | 33986 ft | 430 kts | 289° |
| 2026-05-04 10:46 | 41.68374 | -76.21343 | 33979 ft | 430 kts | 289° |
| 2026-05-04 10:46 | 41.70476 | -76.28847 | 33984 ft | 431 kts | 289° |
| 2026-05-04 10:47 | 41.72573 | -76.36355 | 33975 ft | 431 kts | 289° |
| 2026-05-04 10:47 | 41.74666 | -76.43875 | 33977 ft | 431 kts | 289° |
| 2026-05-04 10:49 | 41.82993 | -76.73967 | 33975 ft | 431 kts | 289° |
| 2026-05-04 10:50 | 41.85058 | -76.81509 | 33963 ft | 431 kts | 289° |
| 2026-05-04 10:52 | 41.93280 | -77.11741 | 33959 ft | 431 kts | 289° |
| 2026-05-04 10:52 | 41.95311 | -77.19309 | 33959 ft | 430 kts | 289° |
| 2026-05-04 10:54 | 42.03431 | -77.49570 | 33959 ft | 431 kts | 289° |
| 2026-05-04 10:56 | 42.11652 | -77.79865 | 33931 ft | 431 kts | 289° |
| 2026-05-04 10:57 | 42.13683 | -77.87458 | 33924 ft | 431 kts | 289° |
| 2026-05-04 10:57 | 42.15711 | -77.95051 | 33928 ft | 430 kts | 289° |
| 2026-05-04 10:58 | 42.17745 | -78.02643 | 33927 ft | 430 kts | 289° |
| 2026-05-04 10:58 | 42.19763 | -78.10222 | 33933 ft | 431 kts | 289° |
| 2026-05-04 10:59 | 42.21779 | -78.17826 | 33914 ft | 431 kts | 289° |
| 2026-05-04 10:59 | 42.23788 | -78.25436 | 33908 ft | 431 kts | 289° |
| 2026-05-04 11:00 | 42.25762 | -78.33065 | 33908 ft | 430 kts | 288° |
| 2026-05-04 11:02 | 42.33290 | -78.63715 | 33913 ft | 430 kts | 288° |
| 2026-05-04 11:05 | 42.38113 | -79.22954 | 33849 ft | 430 kts | 267° |
| 2026-05-04 11:06 | 42.37622 | -79.31016 | 33850 ft | 429 kts | 267° |
| 2026-05-04 11:06 | 42.37124 | -79.39044 | 33857 ft | 430 kts | 267° |
| 2026-05-04 11:10 | 42.33537 | -79.95230 | 33861 ft | 428 kts | 267° |
| 2026-05-04 11:12 | 42.31365 | -80.27172 | 33859 ft | 426 kts | 267° |
| 2026-05-04 11:12 | 42.30817 | -80.35116 | 33860 ft | 426 kts | 267° |
| 2026-05-04 11:13 | 42.30259 | -80.43074 | 33858 ft | 425 kts | 267° |
| 2026-05-04 11:13 | 42.29699 | -80.51021 | 33857 ft | 425 kts | 267° |
| 2026-05-04 11:16 | 42.26842 | -80.90054 | 35263 ft | 424 kts | 266° |
| 2026-05-04 11:16 | 42.26544 | -80.94016 | 35499 ft | 424 kts | 266° |
| 2026-05-04 11:16 | 42.26244 | -80.97981 | 35729 ft | 425 kts | 266° |
| 2026-05-04 11:17 | 42.25645 | -81.05922 | 35838 ft | 425 kts | 266° |
| 2026-05-04 11:19 | 42.23181 | -81.37625 | 35829 ft | 424 kts | 266° |
| 2026-05-04 11:19 | 42.22557 | -81.45547 | 35830 ft | 425 kts | 266° |
| 2026-05-04 11:20 | 42.21922 | -81.53481 | 35831 ft | 425 kts | 266° |
| 2026-05-04 11:20 | 42.21295 | -81.61222 | 35837 ft | 425 kts | 266° |
| 2026-05-04 11:22 | 42.18691 | -81.92857 | 35827 ft | 425 kts | 266° |
| 2026-05-04 11:23 | 42.18020 | -82.00770 | 35816 ft | 425 kts | 266° |
| 2026-05-04 11:25 | 42.15645 | -82.28426 | 35827 ft | 424 kts | 266° |
| 2026-05-04 11:25 | 42.14955 | -82.36310 | 35824 ft | 424 kts | 266° |
| 2026-05-04 11:27 | 42.11804 | -82.71418 | 35827 ft | 418 kts | 266° |
| 2026-05-04 11:28 | 42.11098 | -82.79183 | 35823 ft | 417 kts | 266° |
| 2026-05-04 11:28 | 42.10391 | -82.86926 | 35821 ft | 417 kts | 266° |
| 2026-05-04 11:29 | 42.09678 | -82.94684 | 35823 ft | 417 kts | 266° |
| 2026-05-04 11:29 | 42.08953 | -83.02426 | 35820 ft | 417 kts | 266° |
| 2026-05-04 11:33 | 42.03955 | -83.55239 | 35831 ft | 415 kts | 267° |
| 2026-05-04 11:33 | 42.03320 | -83.62966 | 35827 ft | 415 kts | 267° |
| 2026-05-04 11:34 | 42.02670 | -83.70680 | 35810 ft | 415 kts | 267° |
| 2026-05-04 11:34 | 42.01989 | -83.78394 | 35810 ft | 415 kts | 266° |
| 2026-05-04 11:35 | 42.01303 | -83.86103 | 35823 ft | 415 kts | 266° |
| 2026-05-04 11:35 | 42.00622 | -83.93802 | 35825 ft | 414 kts | 266° |
| 2026-05-04 11:36 | 41.99940 | -84.01494 | 35824 ft | 414 kts | 266° |
| 2026-05-04 11:36 | 41.99248 | -84.09177 | 35825 ft | 414 kts | 266° |
| 2026-05-04 11:37 | 41.98552 | -84.16850 | 35823 ft | 414 kts | 266° |
| 2026-05-04 11:37 | 41.97849 | -84.24530 | 35820 ft | 413 kts | 266° |
| 2026-05-04 11:38 | 41.97137 | -84.32202 | 35807 ft | 413 kts | 266° |
| 2026-05-04 11:38 | 41.96441 | -84.39674 | 35803 ft | 413 kts | 266° |
| 2026-05-04 11:39 | 41.95721 | -84.47320 | 35803 ft | 412 kts | 266° |
| 2026-05-04 11:41 | 41.93193 | -84.73928 | 35804 ft | 412 kts | 266° |
| 2026-05-04 11:41 | 41.92462 | -84.81539 | 35803 ft | 412 kts | 266° |
| 2026-05-04 11:42 | 41.91723 | -84.89161 | 35803 ft | 412 kts | 266° |
| 2026-05-04 11:42 | 41.90965 | -84.96785 | 35804 ft | 412 kts | 265° |
| 2026-05-04 11:43 | 41.90210 | -85.04402 | 35806 ft | 412 kts | 265° |
| 2026-05-04 11:43 | 41.89456 | -85.12020 | 35804 ft | 412 kts | 265° |
| 2026-05-04 11:44 | 41.88694 | -85.19638 | 35803 ft | 412 kts | 265° |
| 2026-05-04 11:44 | 41.87930 | -85.27259 | 35801 ft | 412 kts | 265° |
| 2026-05-04 11:45 | 41.87161 | -85.34875 | 35805 ft | 412 kts | 265° |
| 2026-05-04 11:45 | 41.86376 | -85.42495 | 35805 ft | 412 kts | 265° |
| 2026-05-04 11:46 | 41.85590 | -85.50108 | 35803 ft | 412 kts | 265° |
| 2026-05-04 11:46 | 41.84809 | -85.57719 | 35802 ft | 412 kts | 265° |
| 2026-05-04 11:47 | 41.84016 | -85.65333 | 35794 ft | 412 kts | 265° |
| 2026-05-04 11:47 | 41.83218 | -85.72950 | 35793 ft | 412 kts | 265° |
| 2026-05-04 11:48 | 41.82418 | -85.80570 | 35792 ft | 413 kts | 265° |
| 2026-05-04 11:48 | 41.81612 | -85.88165 | 35793 ft | 413 kts | 265° |
| 2026-05-04 11:49 | 41.80790 | -85.95786 | 35794 ft | 413 kts | 264° |
| 2026-05-04 11:49 | 41.79963 | -86.03409 | 35794 ft | 413 kts | 264° |
| 2026-05-04 11:50 | 41.79143 | -86.11026 | 35794 ft | 413 kts | 264° |
| 2026-05-04 11:50 | 41.78328 | -86.18534 | 35799 ft | 413 kts | 264° |
| 2026-05-04 11:51 | 41.77492 | -86.26148 | 35800 ft | 413 kts | 264° |
| 2026-05-04 11:51 | 41.76870 | -86.33441 | 35793 ft | 411 kts | 272° |
| 2026-05-04 11:52 | 41.76904 | -86.41110 | 35794 ft | 411 kts | 272° |
| 2026-05-04 11:52 | 41.76947 | -86.47476 | 35789 ft | 411 kts | 272° |
| 2026-05-04 11:53 | 41.76978 | -86.53112 | 35788 ft | 412 kts | 272° |
| 2026-05-04 11:53 | 41.77006 | -86.60777 | 35786 ft | 412 kts | 272° |
| 2026-05-04 11:55 | 41.77087 | -86.91345 | 35800 ft | 413 kts | 272° |
| 2026-05-04 11:56 | 41.77094 | -86.98854 | 35798 ft | 414 kts | 272° |
| 2026-05-04 11:56 | 41.77096 | -87.06564 | 35794 ft | 414 kts | 272° |
| 2026-05-04 11:57 | 41.77093 | -87.14268 | 35787 ft | 414 kts | 272° |
| 2026-05-04 11:57 | 41.77082 | -87.21982 | 35778 ft | 414 kts | 271° |
| 2026-05-04 11:58 | 41.77068 | -87.29589 | 35773 ft | 414 kts | 271° |
| 2026-05-04 11:58 | 41.77049 | -87.37311 | 35777 ft | 415 kts | 271° |
| 2026-05-04 11:59 | 41.77028 | -87.45039 | 35768 ft | 415 kts | 271° |
| 2026-05-04 11:59 | 41.76994 | -87.52768 | 35773 ft | 415 kts | 271° |
| 2026-05-04 12:00 | 41.76960 | -87.60404 | 35781 ft | 415 kts | 271° |
| 2026-05-04 12:00 | 41.76927 | -87.68138 | 35781 ft | 415 kts | 271° |
| 2026-05-04 12:01 | 41.76885 | -87.75868 | 35780 ft | 415 kts | 271° |
| 2026-05-04 12:02 | 41.76679 | -88.02744 | 35777 ft | 415 kts | 271° |
| 2026-05-04 12:03 | 41.76612 | -88.10492 | 35776 ft | 415 kts | 271° |
| 2026-05-04 12:03 | 41.76537 | -88.18152 | 35757 ft | 415 kts | 271° |
| 2026-05-04 12:04 | 41.76460 | -88.25890 | 35754 ft | 415 kts | 271° |
| 2026-05-04 12:04 | 41.76383 | -88.33376 | 35767 ft | 415 kts | 271° |
| 2026-05-04 12:05 | 41.76294 | -88.41229 | 35781 ft | 415 kts | 271° |
| 2026-05-04 12:05 | 41.76212 | -88.47659 | 35783 ft | 415 kts | 271° |
| 2026-05-04 12:06 | 41.76096 | -88.56534 | 35782 ft | 415 kts | 271° |
| 2026-05-04 12:06 | 41.76011 | -88.62960 | 35778 ft | 415 kts | 270° |
| 2026-05-04 12:07 | 41.75888 | -88.71939 | 35767 ft | 416 kts | 270° |
| 2026-05-04 12:07 | 41.75772 | -88.79682 | 35766 ft | 416 kts | 270° |
| 2026-05-04 12:08 | 41.75645 | -88.87417 | 35761 ft | 416 kts | 270° |
| 2026-05-04 12:08 | 41.75542 | -88.93855 | 35765 ft | 416 kts | 270° |
| 2026-05-04 12:09 | 41.75412 | -89.01585 | 35767 ft | 416 kts | 270° |
| 2026-05-04 12:09 | 41.75285 | -89.09322 | 35766 ft | 415 kts | 270° |
| 2026-05-04 12:10 | 41.75218 | -89.17023 | 35766 ft | 414 kts | 275° |
| 2026-05-04 12:10 | 41.75695 | -89.24712 | 35768 ft | 414 kts | 276° |
| 2026-05-04 12:11 | 41.76181 | -89.32396 | 35768 ft | 414 kts | 276° |
| 2026-05-04 12:11 | 41.76658 | -89.40085 | 35772 ft | 414 kts | 276° |
| 2026-05-04 12:12 | 41.77116 | -89.47611 | 35778 ft | 414 kts | 276° |
| 2026-05-04 12:12 | 41.77578 | -89.55295 | 35778 ft | 414 kts | 275° |
| 2026-05-04 12:14 | 41.79372 | -89.86049 | 35777 ft | 413 kts | 275° |
| 2026-05-04 12:15 | 41.79810 | -89.93687 | 35775 ft | 413 kts | 275° |
| 2026-05-04 12:15 | 41.80242 | -90.01416 | 35766 ft | 413 kts | 275° |
| 2026-05-04 12:16 | 41.80653 | -90.08859 | 35768 ft | 413 kts | 275° |
| 2026-05-04 12:16 | 41.81070 | -90.16485 | 35770 ft | 413 kts | 275° |
| 2026-05-04 12:17 | 41.81471 | -90.23955 | 35772 ft | 413 kts | 275° |
| 2026-05-04 12:17 | 41.81890 | -90.31628 | 35769 ft | 412 kts | 275° |
| 2026-05-04 12:18 | 41.82292 | -90.39183 | 35769 ft | 412 kts | 275° |
| 2026-05-04 12:18 | 41.82689 | -90.46849 | 35771 ft | 412 kts | 275° |
| 2026-05-04 12:19 | 41.83075 | -90.54460 | 35762 ft | 412 kts | 275° |
| 2026-05-04 12:19 | 41.83463 | -90.62128 | 35754 ft | 412 kts | 275° |
| 2026-05-04 12:20 | 41.83849 | -90.69785 | 35748 ft | 412 kts | 275° |
| 2026-05-04 12:20 | 41.84231 | -90.77445 | 35745 ft | 412 kts | 275° |
| 2026-05-04 12:21 | 41.84602 | -90.84974 | 35741 ft | 411 kts | 275° |
| 2026-05-04 12:21 | 41.84971 | -90.92636 | 35736 ft | 411 kts | 274° |
| 2026-05-04 12:22 | 41.85332 | -91.00290 | 35737 ft | 411 kts | 274° |
| 2026-05-04 12:22 | 41.85695 | -91.07952 | 35734 ft | 411 kts | 274° |
| 2026-05-04 12:23 | 41.86046 | -91.15554 | 35729 ft | 411 kts | 274° |
| 2026-05-04 12:23 | 41.86393 | -91.23209 | 35737 ft | 411 kts | 274° |
| 2026-05-04 12:24 | 41.86738 | -91.30855 | 35751 ft | 411 kts | 274° |
| 2026-05-04 12:24 | 41.87078 | -91.38510 | 35729 ft | 411 kts | 274° |
| 2026-05-04 12:25 | 41.87410 | -91.46160 | 35733 ft | 411 kts | 274° |
| 2026-05-04 12:25 | 41.87731 | -91.53861 | 35729 ft | 411 kts | 274° |
| 2026-05-04 12:26 | 41.88045 | -91.61418 | 35725 ft | 411 kts | 274° |
| 2026-05-04 12:26 | 41.88367 | -91.69127 | 35723 ft | 411 kts | 274° |
| 2026-05-04 12:27 | 41.88674 | -91.76628 | 35724 ft | 411 kts | 274° |
| 2026-05-04 12:27 | 41.88541 | -91.84305 | 35728 ft | 412 kts | 268° |
| 2026-05-04 12:28 | 41.88254 | -91.91910 | 35725 ft | 412 kts | 268° |
| 2026-05-04 12:28 | 41.87959 | -91.99588 | 35718 ft | 412 kts | 268° |
| 2026-05-04 12:29 | 41.87661 | -92.07266 | 35712 ft | 412 kts | 268° |
| 2026-05-04 12:29 | 41.87359 | -92.14947 | 35709 ft | 412 kts | 268° |
| 2026-05-04 12:30 | 41.87043 | -92.22624 | 35706 ft | 412 kts | 268° |
| 2026-05-04 12:30 | 41.86720 | -92.30304 | 35705 ft | 412 kts | 268° |
| 2026-05-04 12:31 | 41.86397 | -92.37995 | 35713 ft | 413 kts | 268° |
| 2026-05-04 12:31 | 41.86066 | -92.45678 | 35718 ft | 413 kts | 268° |
| 2026-05-04 12:32 | 41.85563 | -92.57206 | 35725 ft | 413 kts | 268° |
| 2026-05-04 12:33 | 41.85227 | -92.64888 | 35729 ft | 413 kts | 268° |
| 2026-05-04 12:33 | 41.84877 | -92.72574 | 35730 ft | 413 kts | 268° |
| 2026-05-04 12:34 | 41.84523 | -92.80263 | 35729 ft | 413 kts | 268° |
| 2026-05-04 12:34 | 41.84166 | -92.87902 | 35727 ft | 413 kts | 268° |
| 2026-05-04 12:35 | 41.83805 | -92.95597 | 35722 ft | 413 kts | 268° |
| 2026-05-04 12:35 | 41.83443 | -93.03289 | 35721 ft | 413 kts | 268° |
| 2026-05-04 12:36 | 41.83073 | -93.11032 | 35725 ft | 413 kts | 268° |
| 2026-05-04 12:36 | 41.82696 | -93.18679 | 35718 ft | 414 kts | 268° |
| 2026-05-04 12:37 | 41.82310 | -93.26374 | 35718 ft | 414 kts | 268° |
| 2026-05-04 12:37 | 41.81923 | -93.34074 | 35719 ft | 414 kts | 268° |
| 2026-05-04 12:38 | 41.81531 | -93.41770 | 35723 ft | 414 kts | 267° |
| 2026-05-04 12:38 | 41.81133 | -93.49472 | 35720 ft | 414 kts | 267° |
| 2026-05-04 12:39 | 41.80723 | -93.57168 | 35724 ft | 414 kts | 267° |
| 2026-05-04 12:39 | 41.80309 | -93.64870 | 35723 ft | 414 kts | 267° |
| 2026-05-04 12:40 | 41.79898 | -93.72527 | 35717 ft | 415 kts | 267° |
| 2026-05-04 12:40 | 41.79478 | -93.80245 | 35721 ft | 415 kts | 267° |
| 2026-05-04 12:41 | 41.79050 | -93.87960 | 35704 ft | 415 kts | 267° |
| 2026-05-04 12:41 | 41.78621 | -93.95675 | 35701 ft | 415 kts | 267° |
| 2026-05-04 12:42 | 41.78190 | -94.03395 | 35701 ft | 415 kts | 267° |
| 2026-05-04 12:42 | 41.77752 | -94.11119 | 35700 ft | 415 kts | 267° |
| 2026-05-04 12:43 | 41.77305 | -94.18841 | 35702 ft | 416 kts | 267° |
| 2026-05-04 12:43 | 41.76856 | -94.26561 | 35701 ft | 416 kts | 267° |
| 2026-05-04 12:44 | 41.76396 | -94.34281 | 35702 ft | 416 kts | 266° |
| 2026-05-04 12:44 | 41.75928 | -94.41958 | 35701 ft | 416 kts | 266° |
| 2026-05-04 12:45 | 41.75459 | -94.49684 | 35704 ft | 416 kts | 266° |
| 2026-05-04 12:45 | 41.74982 | -94.57411 | 35714 ft | 416 kts | 266° |
| 2026-05-04 12:46 | 41.74506 | -94.65133 | 35719 ft | 416 kts | 266° |
| 2026-05-04 12:46 | 41.74027 | -94.72860 | 35724 ft | 416 kts | 266° |
| 2026-05-04 12:47 | 41.73544 | -94.80590 | 35728 ft | 416 kts | 266° |
| 2026-05-04 12:47 | 41.73058 | -94.88317 | 35730 ft | 416 kts | 266° |
| 2026-05-04 12:48 | 41.72553 | -94.96043 | 35728 ft | 416 kts | 266° |
| 2026-05-04 12:48 | 41.72042 | -95.03765 | 35728 ft | 416 kts | 266° |
| 2026-05-04 12:49 | 41.71528 | -95.11482 | 35725 ft | 417 kts | 266° |